Time;durP1;ratioP1;P1;durP2;ratioP2;P2;SDS_P1;SDS_P2;PMS_P1;PMS_P2;Temp;Humidity;BMP_temperature;BMP_pressure;BME280_temperature;BME280_humidity;BME280_pressure;Samples;Min_cycle;Max_cycle;Signal;HPM_P1;HPM_P2
2020/12/01 00:02:09;;;;;;;5.50;1.23;;;;;;;7.63;62.23;101481.06;4401846;32;20129;-76
2020/12/01 00:04:34;;;;;;;7.00;0.75;;;;;;;7.51;61.91;101481.44;4404061;32;20478;-77
2020/12/01 00:07:00;;;;;;;3.20;0.65;;;;;;;7.63;61.84;101487.47;4409029;32;20822;-76
2020/12/01 00:09:25;;;;;;;6.95;1.80;;;;;;;7.65;61.67;101487.87;4406938;32;20023;-74
2020/12/01 00:11:51;;;;;;;2.95;0.73;;;;;;;7.60;61.74;101490.25;4408753;32;20143;-77
2020/12/01 00:14:17;;;;;;;6.20;0.62;;;;;;;7.57;61.98;101489.06;4402890;32;20022;-78
2020/12/01 00:16:45;;;;;;;3.83;0.70;;;;;;;7.61;61.91;101491.88;4404854;32;20106;-74
2020/12/01 00:19:11;;;;;;;6.30;0.70;;;;;;;7.64;61.71;101491.84;4405080;32;20103;-74
2020/12/01 00:21:37;;;;;;;3.85;1.12;;;;;;;7.58;62.12;101495.47;4408314;32;20048;-76
2020/12/01 00:24:03;;;;;;;6.18;1.27;;;;;;;7.63;62.37;101498.66;4403765;32;20031;-77
2020/12/01 00:26:29;;;;;;;5.93;0.82;;;;;;;7.62;62.13;101499.88;4405741;32;20190;-75
2020/12/01 00:28:55;;;;;;;3.42;0.93;;;;;;;7.59;62.34;101494.28;4407292;32;20447;-74
2020/12/01 00:31:20;;;;;;;7.53;1.00;;;;;;;7.52;62.15;101495.06;4401124;32;20188;-76
2020/12/01 00:33:47;;;;;;;4.85;0.80;;;;;;;7.57;62.25;101494.66;4401709;32;20097;-77
2020/12/01 00:36:13;;;;;;;6.57;0.90;;;;;;;7.59;62.58;101499.88;4400548;32;20073;-76
2020/12/01 00:38:41;;;;;;;5.55;0.60;;;;;;;7.56;62.56;101498.69;4405076;32;20103;-78
2020/12/01 00:41:07;;;;;;;3.45;0.80;;;;;;;7.49;62.47;101504.25;4408474;32;20113;-75
2020/12/01 00:43:32;;;;;;;3.72;0.62;;;;;;;7.52;62.66;101503.47;4404002;32;20478;-77
2020/12/01 00:45:58;;;;;;;5.37;0.93;;;;;;;7.35;63.58;101506.25;4407490;32;20117;-74
2020/12/01 00:48:24;;;;;;;2.50;0.82;;;;;;;7.44;63.01;101509.47;4408149;32;20073;-74
2020/12/01 00:50:49;;;;;;;3.95;0.80;;;;;;;7.46;62.93;101504.28;4416285;27;20414;-77
2020/12/01 00:53:15;;;;;;;3.62;0.60;;;;;;;7.42;62.83;101497.84;4392788;32;20039;-78
2020/12/01 00:55:41;;;;;;;8.10;0.73;;;;;;;7.43;63.04;101505.84;4389057;32;20081;-78
2020/12/01 00:58:07;;;;;;;4.47;0.88;;;;;;;7.36;62.89;101493.84;4400585;32;20019;-78
2020/12/01 01:00:33;;;;;;;4.07;0.73;;;;;;;7.39;62.75;101496.66;4394603;32;20056;-79
2020/12/01 01:02:59;;;;;;;2.78;0.65;;;;;;;7.36;63.19;101502.25;4394987;32;20071;-78
2020/12/01 01:05:25;;;;;;;5.60;0.70;;;;;;;7.39;63.10;101498.66;4397430;32;20391;-75
2020/12/01 01:07:51;;;;;;;3.33;0.70;;;;;;;7.45;62.96;101499.84;4397315;32;20070;-76
2020/12/01 01:10:24;;;;;;;11.98;0.70;;;;;;;7.41;63.01;101507.47;4396129;32;21282;-78
2020/12/01 01:12:50;;;;;;;5.75;1.65;;;;;;;7.28;63.80;101514.66;4401646;32;20077;-78
2020/12/01 01:15:15;;;;;;;4.05;0.80;;;;;;;7.19;63.70;101525.44;4395596;32;20489;-76
2020/12/01 01:17:41;;;;;;;3.92;0.70;;;;;;;7.16;63.72;101524.22;4394989;32;20086;-76
2020/12/01 01:20:09;;;;;;;5.05;0.73;;;;;;;7.18;63.68;101524.63;4396333;32;20109;-77
2020/12/01 01:22:35;;;;;;;5.28;1.25;;;;;;;7.18;63.72;101526.62;4398903;32;20081;-78
2020/12/01 01:25:00;;;;;;;3.70;0.70;;;;;;;7.16;63.63;101527.03;4399062;32;20105;-76
2020/12/01 01:27:26;;;;;;;6.60;0.50;;;;;;;7.22;63.54;101522.63;4394566;32;20052;-76
2020/12/01 01:29:52;;;;;;;3.00;0.70;;;;;;;7.23;63.80;101529.03;4395569;32;20081;-78
2020/12/01 01:32:17;;;;;;;4.65;1.02;;;;;;;7.26;63.46;101525.44;4399875;32;20524;-77
2020/12/01 01:34:43;;;;;;;4.87;0.68;;;;;;;7.28;63.08;101529.47;4398953;32;20065;-76
2020/12/01 01:37:09;;;;;;;1.67;0.45;;;;;;;7.24;63.39;101537.03;4399105;32;20321;-78
2020/12/01 01:39:34;;;;;;;5.35;0.80;;;;;;;7.25;63.59;101535.84;4399873;32;20070;-77
2020/12/01 01:42:05;;;;;;;6.28;0.82;;;;;;;7.26;63.14;101542.22;4397448;32;20430;-76
2020/12/01 01:44:31;;;;;;;2.30;0.47;;;;;;;7.31;63.38;101547.44;4397480;32;20042;-76
2020/12/01 01:47:21;;;;;;;4.00;0.98;;;;;;;7.33;63.24;101548.66;4396079;32;20433;-77
2020/12/01 01:49:52;;;;;;;4.95;0.68;;;;;;;7.29;63.68;101550.66;4398040;32;20080;-76
2020/12/01 01:52:24;;;;;;;5.05;0.55;;;;;;;7.31;63.30;101551.06;4392623;32;20043;-78
2020/12/01 01:54:56;;;;;;;4.57;0.95;;;;;;;7.34;63.16;101553.03;4395993;32;20022;-78
2020/12/01 01:57:22;;;;;;;3.60;0.57;;;;;;;7.31;63.33;101544.66;4398546;32;20117;-77
2020/12/01 01:59:49;;;;;;;4.50;1.08;;;;;;;7.28;63.45;101549.06;4397053;32;20513;-76
2020/12/01 02:02:15;;;;;;;5.55;0.82;;;;;;;7.30;63.37;101559.84;4394809;32;20167;-76
2020/12/01 02:04:41;;;;;;;4.30;0.62;;;;;;;7.05;64.41;101553.38;4392837;32;20110;-78
2020/12/01 02:07:07;;;;;;;5.00;0.95;;;;;;;7.23;63.88;101552.22;4396442;32;20110;-77
2020/12/01 02:09:46;;;;;;;4.35;0.50;;;;;;;7.26;63.70;101553.44;4393220;32;20109;-77
2020/12/01 02:12:15;;;;;;;5.22;0.73;;;;;;;7.15;64.28;101555.41;4398646;32;20097;-77
2020/12/01 02:14:47;;;;;;;6.10;1.00;;;;;;;7.21;63.96;101556.63;4395545;32;20430;-78
2020/12/01 02:20:10;;;;;;;4.18;0.50;;;;;;;7.71;63.03;101566.72;3984104;32;15080946;-76
2020/12/01 02:22:36;;;;;;;3.47;0.85;;;;;;;7.71;63.03;101566.72;4435847;32;20077;-75
2020/12/01 02:25:03;;;;;;;4.87;0.70;;;;;;;7.30;63.85;101571.06;4438952;32;20099;-75
2020/12/01 02:27:29;;;;;;;4.85;0.73;;;;;;;7.33;63.79;101584.25;4436697;32;20041;-75
2020/12/01 02:29:58;;;;;;;5.97;1.05;;;;;;;7.30;64.00;101576.66;4437614;32;20625;-79
2020/12/01 02:32:26;;;;;;;1.70;0.50;;;;;;;7.31;63.79;101584.66;4435274;32;20122;-78
2020/12/01 02:34:55;;;;;;;6.95;0.73;;;;;;;7.33;63.87;101596.25;4437195;32;20085;-80
2020/12/01 02:37:23;;;;;;;6.22;0.82;;;;;;;7.33;63.61;101589.87;4439176;32;20113;-78
2020/12/01 02:39:50;;;;;;;2.78;1.08;;;;;;;7.35;63.83;101591.06;4438028;32;20341;-79
2020/12/01 02:42:22;;;;;;;4.15;0.70;;;;;;;7.37;63.84;101594.25;4436993;32;20022;-76
2020/12/01 02:44:47;;;;;;;7.15;0.90;;;;;;;7.30;63.86;101585.84;4435915;32;20022;-78
2020/12/01 02:47:13;;;;;;;7.25;0.80;;;;;;;7.38;63.68;101589.47;4438873;32;20063;-77
2020/12/01 02:49:39;;;;;;;3.97;0.80;;;;;;;7.40;63.52;101589.87;4436982;32;20464;-79
2020/12/01 02:52:05;;;;;;;6.12;1.33;;;;;;;7.41;63.77;101589.47;4438607;32;20092;-78
2020/12/01 02:54:30;;;;;;;5.37;0.73;;;;;;;7.31;63.55;101581.84;4433949;32;20073;-79
2020/12/01 02:56:56;;;;;;;3.25;0.50;;;;;;;7.35;63.59;101585.47;4434208;32;20052;-76
2020/12/01 02:59:22;;;;;;;4.03;0.47;;;;;;;7.24;64.14;101584.62;4434692;32;20115;-76
2020/12/01 03:01:48;;;;;;;6.25;0.50;;;;;;;7.30;64.04;101597.03;4435838;32;20455;-76
2020/12/01 03:04:13;;;;;;;5.75;0.82;;;;;;;7.28;64.13;101593.03;4431765;32;20144;-77
2020/12/01 03:06:39;;;;;;;5.30;0.80;;;;;;;7.25;64.25;101591.03;4437153;32;20148;-77
2020/12/01 03:09:07;;;;;;;6.20;0.88;;;;;;;7.23;64.24;101599.00;4435290;32;20077;-79
2020/12/01 03:11:33;;;;;;;6.75;0.88;;;;;;;7.31;64.06;101606.25;4433049;32;20022;-77
2020/12/01 03:13:58;;;;;;;6.85;0.70;;;;;;;7.27;64.26;101603.44;4433593;32;20055;-78
2020/12/01 03:16:24;;;;;;;9.25;0.68;;;;;;;7.28;64.11;101598.63;4435771;32;20914;-76
2020/12/01 03:18:50;;;;;;;5.40;0.73;;;;;;;7.28;64.10;101607.03;4436375;32;20038;-76
2020/12/01 03:21:16;;;;;;;9.77;1.10;;;;;;;7.27;64.31;101602.66;4432834;32;20372;-78
2020/12/01 03:23:43;;;;;;;10.88;1.12;;;;;;;7.25;64.20;101602.22;4433151;32;20085;-78
2020/12/01 03:26:12;;;;;;;3.78;0.50;;;;;;;7.24;63.98;101598.63;4432531;32;20446;-77
2020/12/01 03:28:38;;;;;;;3.60;0.65;;;;;;;7.26;64.22;101601.84;4431066;32;20073;-77
2020/12/01 03:31:04;;;;;;;3.87;0.95;;;;;;;7.18;64.13;101611.38;4424893;32;20535;-77
2020/12/01 03:33:30;;;;;;;4.75;0.60;;;;;;;7.25;64.15;101605.03;4421991;32;20014;-78
2020/12/01 03:35:55;;;;;;;6.45;0.62;;;;;;;7.25;64.17;101602.22;4426180;32;20391;-77
2020/12/01 03:38:21;;;;;;;5.43;0.62;;;;;;;7.29;63.87;101603.03;4422711;32;20018;-79
2020/12/01 03:40:47;;;;;;;4.55;0.77;;;;;;;7.27;64.19;101605.44;4420915;32;20410;-78
2020/12/01 03:43:14;;;;;;;1.60;0.40;;;;;;;7.27;64.17;101600.63;4422205;32;20096;-79
2020/12/01 03:45:40;;;;;;;2.67;0.60;;;;;;;7.27;64.22;101599.84;4421455;32;20042;-78
2020/12/01 03:48:06;;;;;;;6.45;0.62;;;;;;;7.26;64.12;101603.81;4421782;32;20092;-79
2020/12/01 03:50:32;;;;;;;7.05;1.02;;;;;;;7.29;63.92;101603.03;4423838;32;20088;-79
2020/12/01 03:52:58;;;;;;;3.37;0.62;;;;;;;7.29;64.09;101609.44;4423551;32;20069;-78
2020/12/01 03:55:25;;;;;;;5.47;0.62;;;;;;;7.36;63.73;101591.84;4421553;32;20141;-78
2020/12/01 03:57:51;;;;;;;5.78;0.70;;;;;;;7.45;63.55;101595.06;4423158;32;20136;-77
2020/12/01 04:00:21;;;;;;;10.27;0.70;;;;;;;7.32;63.83;101596.63;4418670;32;20069;-78
2020/12/01 04:02:47;;;;;;;7.55;0.77;;;;;;;7.37;63.49;101604.66;4417787;32;20091;-79
2020/12/01 04:05:14;;;;;;;5.37;0.70;;;;;;;7.33;63.63;101603.88;4425942;32;20496;-77
2020/12/01 04:07:40;;;;;;;7.12;0.70;;;;;;;7.28;63.81;101607.84;4420798;32;20074;-79
2020/12/01 04:10:07;;;;;;;3.03;0.82;;;;;;;7.30;63.91;101613.06;4423018;32;20469;-76
2020/12/01 04:12:33;;;;;;;5.40;0.98;;;;;;;7.31;63.93;101612.66;4425210;32;20072;-79
2020/12/01 04:15:00;;;;;;;3.42;0.50;;;;;;;7.24;64.13;101612.63;4422003;32;20403;-79
2020/12/01 04:17:27;;;;;;;6.70;0.88;;;;;;;7.19;63.95;101615.00;4423862;32;20026;-77
2020/12/01 04:19:53;;;;;;;2.10;0.70;;;;;;;7.17;64.41;101622.97;4423160;32;20158;-79
2020/12/01 04:22:19;;;;;;;6.28;0.73;;;;;;;7.11;64.31;101633.75;4421762;32;20025;-79
2020/12/01 04:24:44;;;;;;;4.35;1.00;;;;;;;7.16;64.35;101627.81;4420957;32;20128;-79
2020/12/01 04:27:13;;;;;;;7.37;0.88;;;;;;;7.15;64.45;101628.19;4423948;32;20025;-78
2020/12/01 04:29:38;;;;;;;6.05;0.82;;;;;;;7.18;64.03;101630.19;4424927;32;20033;-79
2020/12/01 04:32:05;;;;;;;6.72;0.80;;;;;;;7.08;64.12;101631.75;4418434;32;20480;-79
2020/12/01 04:34:31;;;;;;;6.93;0.88;;;;;;;7.15;64.24;101626.19;4422265;32;20124;-79
2020/12/01 04:36:57;;;;;;;5.05;0.90;;;;;;;7.04;64.30;101632.94;4422349;32;20089;-78
2020/12/01 04:39:22;;;;;;;3.53;0.70;;;;;;;7.06;64.47;101633.34;4422526;32;20084;-79
2020/12/01 04:41:48;;;;;;;6.65;0.80;;;;;;;7.07;64.40;101632.16;4424736;32;20017;-78
2020/12/01 04:47:14;;;;;;;3.70;0.70;;;;;;;7.64;63.25;101642.34;3983868;32;15030986;-77
2020/12/01 04:49:45;;;;;;;5.60;0.68;;;;;;;7.64;63.25;101642.34;4442389;32;20081;-77
2020/12/01 04:55:27;;;;;;;2.75;0.65;;;;;;;7.55;63.21;101653.91;3984540;32;15024285;-78
2020/12/01 05:03:28;;;;;;;5.90;0.62;;;;;;;7.55;63.20;101658.72;3984849;32;15039354;-75
2020/12/01 05:11:23;;;;;;;4.95;1.00;;;;;;;7.53;63.29;101666.72;3987066;32;15025264;-76
2020/12/01 05:13:58;;;;;;;10.60;1.10;;;;;;;7.53;63.29;101666.72;4441995;32;20029;-80
2020/12/01 05:16:38;;;;;;;9.38;1.05;;;;;;;7.02;64.53;101671.69;4442657;32;20065;-75
2020/12/01 05:19:28;;;;;;;3.30;0.60;;;;;;;7.00;64.43;101668.50;4441549;32;20037;-76
2020/12/01 05:21:53;;;;;;;7.60;2.80;;;;;;;7.00;64.36;101677.69;4435834;32;20045;-75
2020/12/01 05:24:19;;;;;;;5.70;0.45;;;;;;;6.88;64.71;101677.22;4441642;32;20040;-75
2020/12/01 05:26:45;;;;;;;5.97;0.75;;;;;;;6.93;64.56;101682.47;4442433;32;20499;-76
2020/12/01 05:29:24;;;;;;;3.90;0.75;;;;;;;6.94;64.56;101670.06;4440959;32;20450;-77
2020/12/01 05:31:50;;;;;;;6.53;0.77;;;;;;;6.94;64.67;101682.06;4439893;32;20044;-76
2020/12/01 05:34:18;;;;;;;5.57;1.12;;;;;;;6.87;64.75;101681.22;4441119;32;20100;-77
2020/12/01 05:36:45;;;;;;;3.75;0.77;;;;;;;6.86;64.75;101685.19;4441508;32;20050;-75
2020/12/01 05:42:01;;;;;;;11.35;0.90;;;;;;;7.29;63.89;101687.84;3986709;32;15023010;-77
2020/12/01 05:44:30;;;;;;;5.32;0.75;;;;;;;7.29;63.89;101687.84;4442930;32;20532;-75
2020/12/01 05:49:43;;;;;;;5.03;0.80;;;;;;;7.16;64.26;101699.78;4000281;31;15014685;-76
2020/12/01 05:52:31;;;;;;;3.40;0.60;;;;;;;7.16;64.26;101699.78;4441449;32;20102;-75
2020/12/01 05:55:16;;;;;;;5.03;0.80;;;;;;;6.81;64.61;101700.34;4442993;32;20069;-76
2020/12/01 05:57:43;;;;;;;8.75;1.08;;;;;;;6.81;65.10;101702.38;4443065;32;20033;-78
2020/12/01 06:05:24;;;;;;;5.43;0.90;;;;;;;7.14;64.14;101697.34;3988486;32;15023386;-76
2020/12/01 06:07:51;;;;;;;5.30;0.80;;;;;;;7.14;64.14;101697.34;4439120;32;20064;-78
2020/12/01 06:15:32;;;;;;;8.93;1.30;;;;;;;7.07;64.50;101714.13;3986638;32;15023259;-79
2020/12/01 06:18:07;;;;;;;3.00;0.80;;;;;;;7.07;64.50;101714.13;4439777;32;20104;-79
2020/12/01 06:29:30;;;;;;;5.50;0.80;;;;;;;7.10;64.32;101709.72;3989102;32;15022862;-77
2020/12/01 06:35:15;;;;;;;4.15;1.10;;;;;;;6.86;64.94;101718.78;3985445;32;15024964;-77
2020/12/01 06:38:06;;;;;;;5.37;0.93;;;;;;;6.86;64.94;101718.78;4440583;32;20060;-75
2020/12/01 06:40:41;;;;;;;6.18;1.00;;;;;;;6.50;65.68;101714.91;4440520;32;20097;-78
2020/12/01 06:43:17;;;;;;;6.22;0.75;;;;;;;6.47;65.83;101723.28;4439185;32;20067;-79
2020/12/01 06:45:50;;;;;;;8.02;0.70;;;;;;;6.49;65.81;101726.47;4443226;32;20059;-78
2020/12/01 06:50:58;;;;;;;5.28;0.80;;;;;;;6.91;65.17;101736.03;3983273;32;15022691;-77
2020/12/01 06:53:28;;;;;;;4.30;0.93;;;;;;;6.91;65.17;101736.03;4434181;32;20060;-79
2020/12/01 06:55:57;;;;;;;7.10;1.42;;;;;;;6.48;65.88;101741.66;4433235;32;20106;-76
2020/12/01 07:12:04;;;;;;;5.20;1.30;;;;;;;6.95;65.09;101772.41;3988661;32;15023606;-79
2020/12/01 07:17:28;;;;;;;6.75;1.48;;;;;;;6.91;65.30;101780.78;3986522;32;15023299;-79
2020/12/01 07:22:57;;;;;;;4.82;1.02;;;;;;;6.88;65.23;101783.56;3988562;32;15021761;-78
2020/12/01 07:31:04;;;;;;;7.43;2.47;;;;;;;6.83;65.64;101781.09;3984233;32;15021729;-75
2020/12/01 07:33:34;;;;;;;8.02;1.10;;;;;;;6.48;66.14;101781.63;4439920;32;20061;-78
2020/12/01 07:39:11;;;;;;;7.60;1.20;;;;;;;6.93;65.64;101794.41;3983753;32;15023977;-78
2020/12/01 07:41:46;;;;;;;11.60;1.02;;;;;;;6.93;65.64;101794.41;4432747;32;20052;-79
2020/12/01 07:44:15;;;;;;;6.57;1.02;;;;;;;6.50;66.31;101792.44;4434315;32;20029;-78
2020/12/01 07:46:51;;;;;;;7.22;1.17;;;;;;;6.42;66.53;101796.34;4426119;32;20111;-79
2020/12/01 07:49:21;;;;;;;7.50;1.50;;;;;;;6.47;66.37;101796.78;4434419;32;20093;-78
2020/12/01 07:51:48;;;;;;;11.18;1.52;;;;;;;6.51;66.40;101796.81;4426903;32;20106;-76
2020/12/01 07:54:30;;;;;;;6.72;1.20;;;;;;;6.51;66.45;101806.03;4424111;32;20045;-78
2020/12/01 07:56:55;;;;;;;10.73;2.50;;;;;;;6.53;66.48;101800.06;4422120;32;20045;-80
2020/12/01 07:59:21;;;;;;;8.50;1.62;;;;;;;6.58;66.31;101805.28;4415953;32;20399;-79
2020/12/01 08:01:47;;;;;;;5.72;1.75;;;;;;;6.55;66.52;101814.44;4418971;32;20038;-81
2020/12/01 08:04:17;;;;;;;3.97;1.45;;;;;;;6.51;66.66;101819.19;4417597;32;20122;-78
2020/12/01 08:06:44;;;;;;;5.10;1.27;;;;;;;6.51;66.45;101825.59;4416054;32;20107;-79
2020/12/01 08:09:12;;;;;;;5.22;1.05;;;;;;;6.53;66.46;101816.81;4413800;32;20030;-80
2020/12/01 08:11:42;;;;;;;5.18;1.52;;;;;;;6.55;66.32;101829.22;4413787;32;20430;-79
2020/12/01 08:14:09;;;;;;;5.03;1.40;;;;;;;6.63;66.14;101825.28;4418762;32;20430;-80
2020/12/01 08:16:35;;;;;;;6.95;1.60;;;;;;;6.64;66.17;101835.31;4414261;32;20045;-81
2020/12/01 08:19:02;;;;;;;6.22;1.20;;;;;;;6.71;65.99;101845.75;4419808;32;20126;-80
2020/12/01 08:21:35;;;;;;;9.20;1.52;;;;;;;6.76;65.68;101837.81;4424544;32;20064;-80
2020/12/01 08:24:05;;;;;;;7.72;1.30;;;;;;;6.79;65.68;101845.44;4409977;32;20091;-78
2020/12/01 08:26:34;;;;;;;10.45;1.25;;;;;;;6.86;65.51;101836.28;4411700;32;20068;-79
2020/12/01 08:29:11;;;;;;;10.52;2.00;;;;;;;6.97;64.50;101837.97;4415870;32;20070;-85
2020/12/01 08:42:32;;;;;;;7.03;1.20;;;;;;;7.77;62.67;101834.13;3975842;32;15021128;-78
2020/12/01 08:45:24;;;;;;;9.38;1.90;;;;;;;7.77;62.67;101834.13;4423247;32;20074;-77
2020/12/01 08:47:56;;;;;;;9.40;1.45;;;;;;;7.36;63.63;101839.06;4424541;32;20054;-77
2020/12/01 08:50:30;;;;;;;13.15;1.83;;;;;;;7.33;63.66;101836.28;4425228;32;20081;-77
2020/12/01 08:55:56;;;;;;;5.93;1.27;;;;;;;7.88;62.81;101854.56;3954119;32;15724510;-77
2020/12/01 09:01:01;;;;;;;8.00;2.50;;;;;;;7.91;62.66;101848.16;3970154;32;15023132;-75
2020/12/01 09:03:30;;;;;;;5.40;1.50;;;;;;;7.91;62.66;101848.16;4421934;32;20120;-75
2020/12/01 09:05:56;;;;;;;4.65;1.50;;;;;;;7.45;63.42;101847.94;4417543;32;20422;-76
2020/12/01 09:08:46;;;;;;;3.70;0.90;;;;;;;7.51;63.46;101846.38;4418943;32;20104;-76
2020/12/01 09:16:48;;;;;;;5.75;1.67;;;;;;;8.37;61.86;101851.97;3972306;31;15709986;-75
2020/12/01 09:22:25;;;;;;;10.32;1.83;;;;;;;8.73;60.01;101848.03;3979541;32;15023138;-78
2020/12/01 09:25:05;;;;;;;6.32;1.30;;;;;;;8.73;60.01;101848.03;4430655;32;20432;-82
2020/12/01 09:27:34;;;;;;;6.62;1.23;;;;;;;8.43;60.00;101849.59;4430419;32;20153;-78
2020/12/01 09:30:00;;;;;;;7.57;1.55;;;;;;;8.53;59.83;101852.41;4432822;32;20069;-78
2020/12/01 09:32:26;;;;;;;3.80;1.05;;;;;;;8.69;59.57;101852.88;4433525;32;20053;-78
2020/12/01 09:34:52;;;;;;;4.82;1.33;;;;;;;8.82;59.22;101854.06;4432806;32;20045;-78
2020/12/01 09:37:19;;;;;;;9.32;1.35;;;;;;;8.99;58.74;101856.06;4430608;32;20057;-79
2020/12/01 09:39:45;;;;;;;7.40;2.17;;;;;;;8.82;58.26;101854.06;4431794;32;20406;-78
2020/12/01 09:42:21;;;;;;;7.25;1.50;;;;;;;9.07;58.59;101849.25;4432778;32;20686;-76
2020/12/01 09:47:37;;;;;;;8.02;1.77;;;;;;;10.09;56.10;101863.09;3981044;32;15025922;-74
2020/12/01 09:50:07;;;;;;;9.75;1.73;;;;;;;10.09;56.10;101863.09;4436281;32;20084;-75
2020/12/01 10:09:05;;;;;;;9.43;1.83;;;;;;;10.20;55.19;101865.88;4432756;32;20080;-75
2020/12/01 10:17:37;;;;;;;;;;;;;;;10.19;54.80;101858.66;4449640;32;20079;-77
2020/12/01 10:36:23;;;;;;;;;;;;;;;10.98;52.38;101862.16;4450440;32;20150;-75
2020/12/01 10:38:49;;;;;;;13.88;2.55;;;;;;;11.24;51.74;101870.00;4459824;32;20039;-75
2020/12/01 10:41:15;;;;;;;6.95;1.05;;;;;;;11.30;51.55;101870.34;4449640;32;20391;-75
2020/12/01 10:43:41;;;;;;;7.37;1.55;;;;;;;11.31;50.67;101860.66;4453254;32;20048;-75
2020/12/01 10:46:12;;;;;;;11.88;3.33;;;;;;;11.41;51.48;101860.56;4460896;32;20095;-76
2020/12/01 10:48:38;;;;;;;5.15;1.30;;;;;;;11.38;51.31;101858.59;4461566;32;20151;-75
2020/12/01 10:51:05;;;;;;;8.32;1.50;;;;;;;11.36;50.80;101857.41;4459279;32;20069;-77
2020/12/01 10:53:31;;;;;;;4.32;1.48;;;;;;;11.52;51.52;101864.09;4447466;32;20081;-76
2020/12/01 10:55:59;;;;;;;8.02;1.48;;;;;;;11.47;50.99;101860.91;4444240;32;20154;-76
2020/12/01 10:58:25;;;;;;;7.22;1.37;;;;;;;11.50;50.76;101854.44;4457694;32;20365;-76
2020/12/01 11:00:51;;;;;;;5.47;1.15;;;;;;;11.49;50.89;101867.75;4459357;32;20095;-75
2020/12/01 11:03:17;;;;;;;13.80;1.33;;;;;;;11.31;50.96;101849.41;4458915;32;20033;-76
2020/12/01 11:05:43;;;;;;;10.30;1.35;;;;;;;11.49;50.63;101847.22;4459719;32;20614;-76
2020/12/01 11:08:08;;;;;;;6.10;1.30;;;;;;;11.12;51.39;101853.59;4457933;32;20106;-77
2020/12/01 11:10:34;;;;;;;10.10;1.37;;;;;;;11.33;51.19;101858.25;4460285;32;20171;-78
2020/12/01 11:12:59;;;;;;;7.03;1.58;;;;;;;11.44;50.82;101853.28;4458602;32;20492;-75
2020/12/01 11:15:25;;;;;;;12.02;0.98;;;;;;;11.64;50.83;101859.97;4458900;32;20040;-76
2020/12/01 11:17:51;;;;;;;6.15;1.70;;;;;;;11.76;50.26;101850.97;4459679;32;20065;-75
2020/12/01 11:20:18;;;;;;;8.05;0.98;;;;;;;11.95;49.96;101848.34;4463861;32;20102;-77
2020/12/01 11:22:47;;;;;;;9.82;1.08;;;;;;;12.05;49.36;101841.75;4447999;32;20030;-76
2020/12/01 11:25:13;;;;;;;7.30;1.37;;;;;;;11.98;49.08;101844.69;4459407;32;20053;-77
2020/12/01 11:27:38;;;;;;;7.97;1.10;;;;;;;12.13;49.18;101837.59;4460328;32;20033;-77
2020/12/01 11:30:08;;;;;;;8.20;1.08;;;;;;;12.22;49.05;101837.13;4457732;32;20057;-77
2020/12/01 11:32:34;;;;;;;5.78;1.20;;;;;;;12.29;49.27;101837.00;4460099;32;20077;-78
2020/12/01 11:35:01;;;;;;;7.57;1.10;;;;;;;12.24;49.27;101828.22;4456922;32;20045;-78
2020/12/01 11:37:27;;;;;;;5.97;1.95;;;;;;;12.32;49.14;101824.88;4457967;32;20425;-77
2020/12/01 11:39:52;;;;;;;7.80;1.42;;;;;;;12.52;48.47;101833.47;4452957;32;20111;-77
2020/12/01 11:42:18;;;;;;;11.02;1.37;;;;;;;12.45;48.10;101834.34;4451222;32;20063;-76
2020/12/01 11:44:44;;;;;;;9.98;1.80;;;;;;;12.38;47.82;101842.94;4432801;32;20122;-76
2020/12/01 11:47:10;;;;;;;6.55;1.00;;;;;;;12.20;48.66;101845.19;4450264;32;20090;-76
2020/12/01 11:49:36;;;;;;;3.90;1.10;;;;;;;12.21;49.09;101838.31;4450565;32;20380;-76
2020/12/01 11:52:03;;;;;;;14.15;1.73;;;;;;;12.25;49.25;101839.09;4450231;32;20064;-77
2020/12/01 11:54:29;;;;;;;9.48;1.40;;;;;;;12.17;48.85;101854.50;4449988;32;20118;-76
2020/12/01 11:56:55;;;;;;;12.07;1.67;;;;;;;12.49;49.03;101854.88;4447883;32;20037;-76
2020/12/01 11:59:21;;;;;;;12.70;1.17;;;;;;;12.60;48.75;101844.22;4436370;32;20477;-76
2020/12/01 12:01:48;;;;;;;11.57;1.48;;;;;;;12.83;47.96;101846.31;4436837;32;20055;-79
2020/12/01 12:04:14;;;;;;;5.62;0.90;;;;;;;12.85;47.00;101843.84;4448978;32;20037;-79
2020/12/01 12:06:40;;;;;;;12.65;1.42;;;;;;;12.92;46.90;101847.34;4436095;32;20038;-78
2020/12/01 12:09:09;;;;;;;6.40;1.45;;;;;;;13.22;47.08;101844.47;4450743;32;20092;-78
2020/12/01 12:11:35;;;;;;;10.82;1.80;;;;;;;13.29;46.96;101852.03;4449745;32;20099;-79
2020/12/01 12:14:02;;;;;;;8.73;1.17;;;;;;;13.29;46.42;101852.03;4447590;32;20025;-79
2020/12/01 12:16:28;;;;;;;9.88;1.48;;;;;;;13.44;46.14;101842.84;4449662;32;20149;-79
2020/12/01 12:18:54;;;;;;;11.43;1.48;;;;;;;13.39;46.41;101840.53;4448954;32;20038;-83
2020/12/01 12:21:20;;;;;;;9.35;1.70;;;;;;;13.24;47.10;101833.53;4445824;32;20163;-78
2020/12/01 12:23:47;;;;;;;12.57;1.62;;;;;;;13.24;46.95;101832.72;4447494;32;20103;-78
2020/12/01 12:26:14;;;;;;;5.20;1.25;;;;;;;13.01;47.40;101830.69;4451125;32;20078;-83
2020/12/01 12:28:40;;;;;;;13.45;1.65;;;;;;;13.00;47.10;101826.25;4432990;32;20133;-77
2020/12/01 12:31:15;;;;;;;10.23;2.30;;;;;;;12.95;47.42;101825.94;4449010;32;20069;-77
2020/12/01 12:33:52;;;;;;;8.95;1.83;;;;;;;12.66;48.68;101819.13;4449528;32;20045;-76
2020/12/01 12:36:23;;;;;;;7.70;1.30;;;;;;;12.80;47.86;101818.91;4447207;32;20080;-76
2020/12/01 12:38:50;;;;;;;5.70;1.50;;;;;;;12.61;47.49;101819.63;4448185;32;20524;-75
2020/12/01 12:41:16;;;;;;;13.52;1.85;;;;;;;12.53;48.13;101821.75;4432205;32;20068;-76
2020/12/01 12:43:42;;;;;;;11.15;1.77;;;;;;;12.47;48.93;101814.16;4449116;32;20506;-76
2020/12/01 12:46:07;;;;;;;9.15;1.58;;;;;;;12.39;48.69;101823.97;4450179;32;20095;-75
2020/12/01 12:48:33;;;;;;;10.18;1.30;;;;;;;12.53;48.61;101812.47;4446776;32;21221;-75
2020/12/01 12:51:01;;;;;;;7.57;1.77;;;;;;;12.60;48.33;101821.62;4445795;32;20061;-76
2020/12/01 12:53:26;;;;;;;7.72;2.12;;;;;;;12.71;47.46;101811.00;4445085;32;20067;-76
2020/12/01 12:55:53;;;;;;;10.50;2.10;;;;;;;12.95;47.49;101815.41;4446898;32;20069;-77
2020/12/01 12:58:19;;;;;;;8.15;2.20;;;;;;;13.12;47.72;101805.06;4446470;32;20096;-80
2020/12/01 13:00:45;;;;;;;8.27;2.10;;;;;;;13.38;46.64;101821.94;4448157;32;20367;-76
2020/12/01 13:03:11;;;;;;;9.18;2.10;;;;;;;13.48;46.01;101806.03;4448539;32;20630;-76
2020/12/01 13:05:37;;;;;;;7.70;1.77;;;;;;;13.68;45.88;101806.84;4447054;32;20544;-76
2020/12/01 13:08:05;;;;;;;9.98;2.08;;;;;;;13.73;45.31;101804.31;4446521;32;20025;-75
2020/12/01 13:10:32;;;;;;;4.75;1.65;;;;;;;13.81;45.11;101804.97;4449511;32;20076;-74
2020/12/01 13:12:59;;;;;;;10.98;1.77;;;;;;;13.76;44.84;101803.44;4447022;32;20120;-75
2020/12/01 13:15:25;;;;;;;8.75;1.60;;;;;;;13.52;45.37;101809.56;4449010;32;20032;-75
2020/12/01 13:17:51;;;;;;;9.52;1.80;;;;;;;13.49;45.64;101808.41;4432215;32;20103;-75
2020/12/01 13:20:21;;;;;;;9.30;1.42;;;;;;;13.55;46.04;101814.38;4449172;32;20100;-73
2020/12/01 13:22:47;;;;;;;6.03;2.03;;;;;;;13.47;45.97;101804.44;4447030;32;20077;-75
2020/12/01 13:25:13;;;;;;;6.90;1.45;;;;;;;13.35;46.36;101807.91;4446848;32;20388;-75
2020/12/01 13:27:39;;;;;;;6.87;1.27;;;;;;;13.15;46.14;101807.03;4448627;32;20048;-76
2020/12/01 13:30:07;;;;;;;7.28;1.60;;;;;;;13.13;46.69;101803.84;4431195;32;20147;-76
2020/12/01 13:32:33;;;;;;;11.48;1.37;;;;;;;13.11;46.11;101806.31;4437512;32;20390;-76
2020/12/01 13:34:59;;;;;;;4.78;1.75;;;;;;;13.09;46.19;101805.94;4447035;32;20080;-76
2020/12/01 13:37:25;;;;;;;18.90;2.90;;;;;;;13.16;46.34;101800.94;4445466;32;20414;-76
2020/12/01 13:39:51;;;;;;;8.20;1.85;;;;;;;13.21;47.12;101799.66;4445033;32;20798;-79
2020/12/01 13:42:16;;;;;;;6.15;1.30;;;;;;;13.45;46.15;101790.72;4449496;32;20049;-77
2020/12/01 13:44:42;;;;;;;6.60;1.25;;;;;;;13.46;45.94;101795.16;4447054;32;20121;-76
2020/12/01 13:47:08;;;;;;;8.15;1.80;;;;;;;13.83;45.19;101789.16;4446912;32;20029;-77
2020/12/01 13:49:34;;;;;;;12.15;2.03;;;;;;;13.96;45.19;101790.09;4448912;32;20049;-77
2020/12/01 13:51:59;;;;;;;8.35;1.45;;;;;;;13.86;43.90;101795.97;4445246;32;20092;-76
2020/12/01 13:54:25;;;;;;;8.50;1.75;;;;;;;13.72;45.00;101797.03;4449491;32;20037;-78
2020/12/01 13:56:51;;;;;;;6.87;1.92;;;;;;;13.41;45.20;101786.37;4448985;32;20081;-77
2020/12/01 13:59:17;;;;;;;10.38;2.12;;;;;;;13.50;45.14;101797.91;4446620;32;20089;-76